Impacts METAR Board
IDs:

KLGA - New York/La Guardia, NY, US

Updated at: 0300 UTC 06 Dec 2019
Potential Impact None Slight Moderate High
Time 05/15Z 05/16Z 05/17Z 05/18Z 05/19Z 05/20Z 05/21Z 05/22Z 05/23Z 06/00Z 06/01Z 06/02Z 06/03Z
Temp42 42 41 43 42 43 41 41 40 40 39 39 39
Dewpt28 23 22 21 21 20 22 24 23 22 24 23 21
Altim29.76 29.77 29.79 29.78 29.79 29.82 29.86 29.91 29.94 29.97 29.99 30.02 30.05
VIS10 10 10 10 10 10 10 10 10 10 10 10 10
CIG65 45 55 -- 60 65 50 50 50 -- -- -- 50
CoverBKNBKNBKNSCTBKNBKNBKNBKNOVCFEWSCTFEWBKN
FltCatVFRVFRVFRVFRVFRVFRVFRVFRVFRVFRVFRVFRVFR
WX--------------------------
WDir290280290310310290270290290280300290300
WSpd16 20 18 21 21 16 18 14 10 12 14 16 14
WGst25 32 29 32 28 28 25 22 18 22 23 25 26
Raw hourly METARs
KLGA 051451Z 29016G25KT 10SM SCT035 BKN065 BKN110 06/M02 A2976 RMK AO2 SLP076 T00561022 53028
KLGA 051551Z 28020G32KT 10SM BKN045 BKN110 06/M05 A2977 RMK AO2 PK WND 28032/1551 SLP082 T00561050
KLGA 051651Z 29018G29KT 10SM BKN055 05/M06 A2979 RMK AO2 PK WND 29034/1615 SLP088 T00501056
KLGA 051751Z 31021G32KT 10SM SCT050 SCT150 06/M06 A2978 RMK AO2 PK WND 32032/1748 SLP083 T00611061 10061 20039 50006
KLGA 051851Z 31021G28KT 10SM BKN060 BKN150 06/M06 A2979 RMK AO2 PK WND 32036/1839 SLP088 T00561061
KLGA 051951Z 29016G28KT 10SM SCT050 BKN065 BKN080 BKN150 06/M07 A2982 RMK AO2 PK WND 30033/1906 SLP099 T00611067
KLGA 052051Z 27018G25KT 10SM BKN050 BKN060 BKN080 BKN150 05/M06 A2986 RMK AO2 PK WND 30028/2007 SLP111 T00501056 53028
KLGA 052151Z 29014G22KT 10SM SCT042 BKN050 BKN065 05/M04 A2991 RMK AO2 PK WND 26027/2118 SLP127 T00501044
KLGA 052251Z 29010G18KT 10SM BKN050 OVC075 04/M05 A2994 RMK AO2 PK WND 27027/2154 SLP139 T00441050
KLGA 052351Z 28012G22KT 10SM FEW075 04/M06 A2997 RMK AO2 SLP147 T00441056 10061 20044 51036
KLGA 060051Z 30014G23KT 10SM SCT045 04/M04 A2999 RMK AO2 PK WND 28030/0021 SLP156 T00391044
KLGA 060151Z 29016G25KT 10SM FEW045 FEW055 04/M05 A3002 RMK AO2 PK WND 29027/0100 SLP165 T00391050
KLGA 060251Z 30014G26KT 10SM BKN050 04/M06 A3005 RMK AO2 PK WND 27029/0226 SLP175 T00391061 53028



Page loaded:  03:40 UTC  |   07:40 PM Pacific  |   08:40 PM Mountain  |   09:40 PM Central  |   10:40 PM Eastern

 

ADVISORIES

FORECASTS

FORECASTS

OBSERVATIONS

USER TOOLS

ABOUT US